sensor_id;sensor_type;location;lat;lon;timestamp;temperature;humidity
14061;DHT22;7105;43.616;1.434;2023-08-20T00:01:15;27.20;99.90
14061;DHT22;7105;43.616;1.434;2023-08-20T00:03:43;27.20;99.90
14061;DHT22;7105;43.616;1.434;2023-08-20T00:06:09;27.10;99.90
14061;DHT22;7105;43.616;1.434;2023-08-20T00:08:35;27.00;99.90
14061;DHT22;7105;43.616;1.434;2023-08-20T00:11:01;27.00;99.90
14061;DHT22;7105;43.616;1.434;2023-08-20T00:13:28;27.10;99.90
14061;DHT22;7105;43.616;1.434;2023-08-20T00:15:54;27.10;99.90
14061;DHT22;7105;43.616;1.434;2023-08-20T00:18:19;27.00;99.90
14061;DHT22;7105;43.616;1.434;2023-08-20T00:20:45;26.90;99.90
14061;DHT22;7105;43.616;1.434;2023-08-20T00:23:11;27.00;99.90
14061;DHT22;7105;43.616;1.434;2023-08-20T00:25:38;27.00;99.90
14061;DHT22;7105;43.616;1.434;2023-08-20T00:28:04;27.00;99.90
14061;DHT22;7105;43.616;1.434;2023-08-20T00:30:29;26.90;99.90
14061;DHT22;7105;43.616;1.434;2023-08-20T00:32:55;26.80;99.90
14061;DHT22;7105;43.616;1.434;2023-08-20T00:35:21;26.90;99.90
14061;DHT22;7105;43.616;1.434;2023-08-20T00:37:47;27.00;99.90
14061;DHT22;7105;43.616;1.434;2023-08-20T00:40:13;26.90;99.90
14061;DHT22;7105;43.616;1.434;2023-08-20T00:42:39;26.90;99.90
14061;DHT22;7105;43.616;1.434;2023-08-20T00:45:05;26.80;99.90
14061;DHT22;7105;43.616;1.434;2023-08-20T00:47:31;26.60;99.90
14061;DHT22;7105;43.616;1.434;2023-08-20T00:49:57;26.70;99.90
14061;DHT22;7105;43.616;1.434;2023-08-20T00:52:22;26.70;99.90
14061;DHT22;7105;43.616;1.434;2023-08-20T00:54:50;26.80;99.90
14061;DHT22;7105;43.616;1.434;2023-08-20T00:57:17;26.70;99.90
14061;DHT22;7105;43.616;1.434;2023-08-20T00:59:43;26.70;99.90
14061;DHT22;7105;43.616;1.434;2023-08-20T01:02:10;26.70;99.90
14061;DHT22;7105;43.616;1.434;2023-08-20T01:04:36;26.70;99.90
14061;DHT22;7105;43.616;1.434;2023-08-20T01:07:18;26.70;99.90
14061;DHT22;7105;43.616;1.434;2023-08-20T01:12:27;26.80;99.90
14061;DHT22;7105;43.616;1.434;2023-08-20T01:14:54;26.80;99.90
14061;DHT22;7105;43.616;1.434;2023-08-20T01:17:19;26.80;99.90
14061;DHT22;7105;43.616;1.434;2023-08-20T01:19:45;26.70;99.90
14061;DHT22;7105;43.616;1.434;2023-08-20T01:22:15;26.70;99.90
14061;DHT22;7105;43.616;1.434;2023-08-20T01:25:18;26.70;99.90
14061;DHT22;7105;43.616;1.434;2023-08-20T01:28:31;26.80;99.90
14061;DHT22;7105;43.616;1.434;2023-08-20T01:30:39;26.70;99.90
14061;DHT22;7105;43.616;1.434;2023-08-20T01:33:05;26.70;99.90
14061;DHT22;7105;43.616;1.434;2023-08-20T01:35:32;26.60;99.90
14061;DHT22;7105;43.616;1.434;2023-08-20T01:37:58;26.60;99.90
14061;DHT22;7105;43.616;1.434;2023-08-20T01:40:24;26.60;99.90
14061;DHT22;7105;43.616;1.434;2023-08-20T01:42:49;26.60;99.90
14061;DHT22;7105;43.616;1.434;2023-08-20T01:45:15;26.70;99.90
14061;DHT22;7105;43.616;1.434;2023-08-20T01:47:40;26.80;99.90
14061;DHT22;7105;43.616;1.434;2023-08-20T01:50:06;26.70;99.90
14061;DHT22;7105;43.616;1.434;2023-08-20T01:52:32;26.70;99.90
14061;DHT22;7105;43.616;1.434;2023-08-20T01:54:58;26.70;99.90
14061;DHT22;7105;43.616;1.434;2023-08-20T01:57:23;26.70;99.90
14061;DHT22;7105;43.616;1.434;2023-08-20T01:59:49;26.70;99.90
14061;DHT22;7105;43.616;1.434;2023-08-20T02:02:15;26.60;99.90
14061;DHT22;7105;43.616;1.434;2023-08-20T02:04:40;26.50;99.90
14061;DHT22;7105;43.616;1.434;2023-08-20T02:07:06;26.50;99.90
14061;DHT22;7105;43.616;1.434;2023-08-20T02:09:32;26.50;99.90
14061;DHT22;7105;43.616;1.434;2023-08-20T02:11:58;26.40;99.90
14061;DHT22;7105;43.616;1.434;2023-08-20T02:14:26;26.40;99.90
14061;DHT22;7105;43.616;1.434;2023-08-20T02:16:53;26.40;99.90
14061;DHT22;7105;43.616;1.434;2023-08-20T02:19:19;26.30;99.90
14061;DHT22;7105;43.616;1.434;2023-08-20T02:21:45;26.30;99.90
14061;DHT22;7105;43.616;1.434;2023-08-20T02:24:10;26.30;99.90
14061;DHT22;7105;43.616;1.434;2023-08-20T02:26:36;26.10;99.90
14061;DHT22;7105;43.616;1.434;2023-08-20T02:29:02;26.10;99.90
14061;DHT22;7105;43.616;1.434;2023-08-20T02:31:28;26.10;99.90
14061;DHT22;7105;43.616;1.434;2023-08-20T02:33:54;26.20;99.90
14061;DHT22;7105;43.616;1.434;2023-08-20T02:36:19;26.10;99.90
14061;DHT22;7105;43.616;1.434;2023-08-20T02:38:45;26.00;99.90
14061;DHT22;7105;43.616;1.434;2023-08-20T02:41:11;26.00;99.90
14061;DHT22;7105;43.616;1.434;2023-08-20T02:43:37;26.00;99.90
14061;DHT22;7105;43.616;1.434;2023-08-20T02:46:03;26.00;99.90
14061;DHT22;7105;43.616;1.434;2023-08-20T02:48:30;26.00;99.90
14061;DHT22;7105;43.616;1.434;2023-08-20T02:50:56;25.90;99.90
14061;DHT22;7105;43.616;1.434;2023-08-20T02:53:22;25.90;99.90
14061;DHT22;7105;43.616;1.434;2023-08-20T02:55:48;25.90;99.90
14061;DHT22;7105;43.616;1.434;2023-08-20T02:58:13;25.80;99.90
14061;DHT22;7105;43.616;1.434;2023-08-20T03:00:39;25.90;99.90
14061;DHT22;7105;43.616;1.434;2023-08-20T03:03:05;25.80;99.90
14061;DHT22;7105;43.616;1.434;2023-08-20T03:05:32;25.70;99.90
14061;DHT22;7105;43.616;1.434;2023-08-20T03:07:58;25.70;99.90
14061;DHT22;7105;43.616;1.434;2023-08-20T03:10:24;25.70;99.90
14061;DHT22;7105;43.616;1.434;2023-08-20T03:12:50;25.70;99.90
14061;DHT22;7105;43.616;1.434;2023-08-20T03:15:15;25.80;99.90
14061;DHT22;7105;43.616;1.434;2023-08-20T03:17:41;25.70;99.90
14061;DHT22;7105;43.616;1.434;2023-08-20T03:20:07;25.70;99.90
14061;DHT22;7105;43.616;1.434;2023-08-20T03:22:33;25.70;99.90
14061;DHT22;7105;43.616;1.434;2023-08-20T03:24:59;25.70;99.90
14061;DHT22;7105;43.616;1.434;2023-08-20T03:27:24;25.70;99.90
14061;DHT22;7105;43.616;1.434;2023-08-20T03:29:51;25.70;99.90
14061;DHT22;7105;43.616;1.434;2023-08-20T03:32:18;25.70;99.90
14061;DHT22;7105;43.616;1.434;2023-08-20T03:34:43;25.60;99.90
14061;DHT22;7105;43.616;1.434;2023-08-20T03:37:09;25.60;99.90
14061;DHT22;7105;43.616;1.434;2023-08-20T03:39:35;25.70;99.90
14061;DHT22;7105;43.616;1.434;2023-08-20T03:42:00;25.70;99.90
14061;DHT22;7105;43.616;1.434;2023-08-20T03:44:26;25.70;99.90
14061;DHT22;7105;43.616;1.434;2023-08-20T03:46:52;25.60;99.90
14061;DHT22;7105;43.616;1.434;2023-08-20T03:49:17;25.60;99.90
14061;DHT22;7105;43.616;1.434;2023-08-20T03:51:43;25.50;99.90
14061;DHT22;7105;43.616;1.434;2023-08-20T03:54:09;25.60;99.90
14061;DHT22;7105;43.616;1.434;2023-08-20T03:56:35;25.40;99.90
14061;DHT22;7105;43.616;1.434;2023-08-20T03:59:01;25.40;99.90
14061;DHT22;7105;43.616;1.434;2023-08-20T04:01:26;25.40;99.90
14061;DHT22;7105;43.616;1.434;2023-08-20T04:03:52;25.30;99.90
14061;DHT22;7105;43.616;1.434;2023-08-20T04:06:18;25.30;99.90
14061;DHT22;7105;43.616;1.434;2023-08-20T04:08:44;25.30;99.90
14061;DHT22;7105;43.616;1.434;2023-08-20T04:11:09;25.40;99.90
14061;DHT22;7105;43.616;1.434;2023-08-20T04:13:35;25.40;99.90
14061;DHT22;7105;43.616;1.434;2023-08-20T04:16:01;25.30;99.90
14061;DHT22;7105;43.616;1.434;2023-08-20T04:18:26;25.20;99.90
14061;DHT22;7105;43.616;1.434;2023-08-20T04:20:53;25.20;99.90
14061;DHT22;7105;43.616;1.434;2023-08-20T04:23:19;25.20;99.90
14061;DHT22;7105;43.616;1.434;2023-08-20T04:25:45;25.20;99.90
14061;DHT22;7105;43.616;1.434;2023-08-20T04:28:12;25.30;99.90
14061;DHT22;7105;43.616;1.434;2023-08-20T04:30:38;25.20;99.90
14061;DHT22;7105;43.616;1.434;2023-08-20T04:33:04;25.10;99.90
14061;DHT22;7105;43.616;1.434;2023-08-20T04:35:29;25.00;99.90
14061;DHT22;7105;43.616;1.434;2023-08-20T04:37:55;24.90;99.90
14061;DHT22;7105;43.616;1.434;2023-08-20T04:40:21;25.10;99.90
14061;DHT22;7105;43.616;1.434;2023-08-20T04:42:47;25.10;99.90
14061;DHT22;7105;43.616;1.434;2023-08-20T04:45:12;25.10;99.90
14061;DHT22;7105;43.616;1.434;2023-08-20T04:47:38;25.10;99.90
14061;DHT22;7105;43.616;1.434;2023-08-20T04:50:04;25.10;99.90
14061;DHT22;7105;43.616;1.434;2023-08-20T04:52:33;25.10;99.90
14061;DHT22;7105;43.616;1.434;2023-08-20T04:54:59;25.00;99.90
14061;DHT22;7105;43.616;1.434;2023-08-20T04:57:25;25.00;99.90
14061;DHT22;7105;43.616;1.434;2023-08-20T04:59:50;25.00;99.90
14061;DHT22;7105;43.616;1.434;2023-08-20T05:02:16;25.10;99.90
14061;DHT22;7105;43.616;1.434;2023-08-20T05:04:42;25.10;99.90
14061;DHT22;7105;43.616;1.434;2023-08-20T05:07:07;25.00;99.90
14061;DHT22;7105;43.616;1.434;2023-08-20T05:09:33;25.10;99.90
14061;DHT22;7105;43.616;1.434;2023-08-20T05:11:59;25.10;99.90
14061;DHT22;7105;43.616;1.434;2023-08-20T05:14:25;25.10;99.90
14061;DHT22;7105;43.616;1.434;2023-08-20T05:16:50;25.10;99.90
14061;DHT22;7105;43.616;1.434;2023-08-20T05:19:16;25.00;99.90
14061;DHT22;7105;43.616;1.434;2023-08-20T05:21:41;25.10;99.90
14061;DHT22;7105;43.616;1.434;2023-08-20T05:24:07;25.10;99.90
14061;DHT22;7105;43.616;1.434;2023-08-20T05:26:34;25.20;99.90
14061;DHT22;7105;43.616;1.434;2023-08-20T05:29:00;25.30;99.90
14061;DHT22;7105;43.616;1.434;2023-08-20T05:31:26;25.40;99.90
14061;DHT22;7105;43.616;1.434;2023-08-20T05:33:51;25.20;99.90
14061;DHT22;7105;43.616;1.434;2023-08-20T05:36:17;25.20;99.90
14061;DHT22;7105;43.616;1.434;2023-08-20T05:38:43;25.20;99.90
14061;DHT22;7105;43.616;1.434;2023-08-20T05:41:09;25.30;99.90
14061;DHT22;7105;43.616;1.434;2023-08-20T05:43:35;25.60;99.90
14061;DHT22;7105;43.616;1.434;2023-08-20T05:46:02;25.70;99.90
14061;DHT22;7105;43.616;1.434;2023-08-20T05:48:34;26.10;99.90
14061;DHT22;7105;43.616;1.434;2023-08-20T05:51:00;27.40;99.90
14061;DHT22;7105;43.616;1.434;2023-08-20T05:53:25;27.80;99.90
14061;DHT22;7105;43.616;1.434;2023-08-20T05:55:51;28.10;99.90
14061;DHT22;7105;43.616;1.434;2023-08-20T05:58:16;28.90;99.90
14061;DHT22;7105;43.616;1.434;2023-08-20T06:00:42;27.70;99.90
14061;DHT22;7105;43.616;1.434;2023-08-20T06:03:08;27.30;99.90
14061;DHT22;7105;43.616;1.434;2023-08-20T06:05:34;26.90;99.90
14061;DHT22;7105;43.616;1.434;2023-08-20T06:08:00;26.70;99.90
14061;DHT22;7105;43.616;1.434;2023-08-20T06:10:26;26.60;99.90
14061;DHT22;7105;43.616;1.434;2023-08-20T06:12:52;26.30;99.90
14061;DHT22;7105;43.616;1.434;2023-08-20T06:15:17;26.40;99.90
14061;DHT22;7105;43.616;1.434;2023-08-20T06:17:43;26.60;99.90
14061;DHT22;7105;43.616;1.434;2023-08-20T06:20:09;26.70;99.90
14061;DHT22;7105;43.616;1.434;2023-08-20T06:22:37;27.00;99.90
14061;DHT22;7105;43.616;1.434;2023-08-20T06:25:03;27.30;99.90
14061;DHT22;7105;43.616;1.434;2023-08-20T06:27:29;29.20;99.90
14061;DHT22;7105;43.616;1.434;2023-08-20T06:29:55;30.90;99.90
14061;DHT22;7105;43.616;1.434;2023-08-20T06:32:21;32.40;99.90
14061;DHT22;7105;43.616;1.434;2023-08-20T06:34:47;33.30;99.90
14061;DHT22;7105;43.616;1.434;2023-08-20T06:37:12;33.60;99.90
14061;DHT22;7105;43.616;1.434;2023-08-20T06:39:38;34.60;99.90
14061;DHT22;7105;43.616;1.434;2023-08-20T06:42:04;34.80;99.90
14061;DHT22;7105;43.616;1.434;2023-08-20T06:44:30;35.50;99.90
14061;DHT22;7105;43.616;1.434;2023-08-20T06:47:10;35.50;99.90
14061;DHT22;7105;43.616;1.434;2023-08-20T06:49:36;36.50;99.90
14061;DHT22;7105;43.616;1.434;2023-08-20T06:52:01;35.50;99.90
14061;DHT22;7105;43.616;1.434;2023-08-20T06:54:27;35.90;99.90
14061;DHT22;7105;43.616;1.434;2023-08-20T06:56:52;36.60;99.90
14061;DHT22;7105;43.616;1.434;2023-08-20T06:59:18;38.00;99.90
14061;DHT22;7105;43.616;1.434;2023-08-20T07:01:44;38.80;99.90
14061;DHT22;7105;43.616;1.434;2023-08-20T07:04:10;37.40;99.90
14061;DHT22;7105;43.616;1.434;2023-08-20T07:06:35;38.20;99.90
14061;DHT22;7105;43.616;1.434;2023-08-20T07:09:01;37.40;99.90
14061;DHT22;7105;43.616;1.434;2023-08-20T07:11:29;39.20;99.90
14061;DHT22;7105;43.616;1.434;2023-08-20T07:13:54;39.00;99.90
14061;DHT22;7105;43.616;1.434;2023-08-20T07:16:20;37.80;99.90
14061;DHT22;7105;43.616;1.434;2023-08-20T07:18:46;38.70;99.90
14061;DHT22;7105;43.616;1.434;2023-08-20T07:21:11;39.80;99.90
14061;DHT22;7105;43.616;1.434;2023-08-20T07:23:37;39.30;99.90
14061;DHT22;7105;43.616;1.434;2023-08-20T07:26:07;38.80;99.90
14061;DHT22;7105;43.616;1.434;2023-08-20T07:28:33;38.50;99.90
14061;DHT22;7105;43.616;1.434;2023-08-20T07:31:18;37.70;99.90
14061;DHT22;7105;43.616;1.434;2023-08-20T07:33:47;38.50;99.90
14061;DHT22;7105;43.616;1.434;2023-08-20T07:36:14;38.20;99.90
14061;DHT22;7105;43.616;1.434;2023-08-20T07:38:40;38.40;99.90
14061;DHT22;7105;43.616;1.434;2023-08-20T07:41:08;38.90;99.90
14061;DHT22;7105;43.616;1.434;2023-08-20T07:43:34;39.70;99.90
14061;DHT22;7105;43.616;1.434;2023-08-20T07:46:00;40.20;99.90
14061;DHT22;7105;43.616;1.434;2023-08-20T07:48:25;39.10;99.90
14061;DHT22;7105;43.616;1.434;2023-08-20T07:50:51;39.60;99.90
14061;DHT22;7105;43.616;1.434;2023-08-20T07:53:17;40.90;99.90
14061;DHT22;7105;43.616;1.434;2023-08-20T07:55:42;40.50;99.90
14061;DHT22;7105;43.616;1.434;2023-08-20T07:58:08;41.50;99.90
14061;DHT22;7105;43.616;1.434;2023-08-20T08:00:34;40.30;99.90
14061;DHT22;7105;43.616;1.434;2023-08-20T08:03:00;40.50;99.90
14061;DHT22;7105;43.616;1.434;2023-08-20T08:05:26;39.60;99.90
14061;DHT22;7105;43.616;1.434;2023-08-20T08:07:51;40.70;99.90
14061;DHT22;7105;43.616;1.434;2023-08-20T08:10:17;40.10;99.90
14061;DHT22;7105;43.616;1.434;2023-08-20T08:12:43;40.50;99.90
14061;DHT22;7105;43.616;1.434;2023-08-20T08:15:08;40.70;99.90
14061;DHT22;7105;43.616;1.434;2023-08-20T08:17:34;40.80;99.90
14061;DHT22;7105;43.616;1.434;2023-08-20T08:20:00;41.30;99.90
14061;DHT22;7105;43.616;1.434;2023-08-20T08:22:25;42.60;99.90
14061;DHT22;7105;43.616;1.434;2023-08-20T08:24:51;42.20;99.90
14061;DHT22;7105;43.616;1.434;2023-08-20T08:27:17;42.90;99.90
14061;DHT22;7105;43.616;1.434;2023-08-20T08:29:42;42.10;99.90
14061;DHT22;7105;43.616;1.434;2023-08-20T08:32:10;41.90;99.90
14061;DHT22;7105;43.616;1.434;2023-08-20T08:34:35;41.60;99.90
14061;DHT22;7105;43.616;1.434;2023-08-20T08:37:01;39.20;99.90
14061;DHT22;7105;43.616;1.434;2023-08-20T08:39:26;40.90;99.90
14061;DHT22;7105;43.616;1.434;2023-08-20T08:41:59;43.00;99.90
14061;DHT22;7105;43.616;1.434;2023-08-20T08:44:28;43.80;99.90
14061;DHT22;7105;43.616;1.434;2023-08-20T08:46:53;41.80;99.90
14061;DHT22;7105;43.616;1.434;2023-08-20T08:49:19;41.90;99.90
14061;DHT22;7105;43.616;1.434;2023-08-20T08:51:46;42.10;99.90
14061;DHT22;7105;43.616;1.434;2023-08-20T08:54:13;43.10;99.90
14061;DHT22;7105;43.616;1.434;2023-08-20T08:56:39;42.50;99.90
14061;DHT22;7105;43.616;1.434;2023-08-20T08:59:05;41.20;99.90
14061;DHT22;7105;43.616;1.434;2023-08-20T09:01:31;41.70;99.90
14061;DHT22;7105;43.616;1.434;2023-08-20T09:03:57;39.70;99.90
14061;DHT22;7105;43.616;1.434;2023-08-20T09:06:23;39.50;99.90
14061;DHT22;7105;43.616;1.434;2023-08-20T09:08:48;42.00;99.90
14061;DHT22;7105;43.616;1.434;2023-08-20T09:11:14;39.90;99.90
14061;DHT22;7105;43.616;1.434;2023-08-20T09:13:42;36.60;99.90
14061;DHT22;7105;43.616;1.434;2023-08-20T09:16:10;34.90;99.90
14061;DHT22;7105;43.616;1.434;2023-08-20T09:18:46;34.70;99.90
14061;DHT22;7105;43.616;1.434;2023-08-20T09:21:13;35.20;99.90
14061;DHT22;7105;43.616;1.434;2023-08-20T09:23:39;34.70;99.90
14061;DHT22;7105;43.616;1.434;2023-08-20T09:26:06;34.50;99.90
14061;DHT22;7105;43.616;1.434;2023-08-20T09:28:43;34.90;99.90
14061;DHT22;7105;43.616;1.434;2023-08-20T09:31:09;34.50;99.90
14061;DHT22;7105;43.616;1.434;2023-08-20T09:33:34;34.20;99.90
14061;DHT22;7105;43.616;1.434;2023-08-20T09:36:03;34.40;99.90
14061;DHT22;7105;43.616;1.434;2023-08-20T09:38:29;34.00;99.90
14061;DHT22;7105;43.616;1.434;2023-08-20T09:40:54;34.10;99.90
14061;DHT22;7105;43.616;1.434;2023-08-20T09:43:25;34.20;99.90
14061;DHT22;7105;43.616;1.434;2023-08-20T09:45:55;34.20;99.90
14061;DHT22;7105;43.616;1.434;2023-08-20T09:48:22;34.00;99.90
14061;DHT22;7105;43.616;1.434;2023-08-20T09:50:52;34.20;99.90
14061;DHT22;7105;43.616;1.434;2023-08-20T09:53:26;34.10;99.90
14061;DHT22;7105;43.616;1.434;2023-08-20T09:55:55;33.90;99.90
14061;DHT22;7105;43.616;1.434;2023-08-20T09:58:26;34.20;99.90
14061;DHT22;7105;43.616;1.434;2023-08-20T10:00:53;33.80;99.90
14061;DHT22;7105;43.616;1.434;2023-08-20T10:03:20;33.60;99.90
14061;DHT22;7105;43.616;1.434;2023-08-20T10:05:48;33.70;99.90
14061;DHT22;7105;43.616;1.434;2023-08-20T10:08:15;33.70;99.90
14061;DHT22;7105;43.616;1.434;2023-08-20T10:10:42;33.40;99.90
14061;DHT22;7105;43.616;1.434;2023-08-20T10:13:07;34.10;99.90
14061;DHT22;7105;43.616;1.434;2023-08-20T10:15:33;33.90;99.90
14061;DHT22;7105;43.616;1.434;2023-08-20T10:18:01;33.30;99.90
14061;DHT22;7105;43.616;1.434;2023-08-20T10:20:29;33.40;99.90
14061;DHT22;7105;43.616;1.434;2023-08-20T10:23:00;33.10;99.90
14061;DHT22;7105;43.616;1.434;2023-08-20T10:25:26;33.30;99.90
14061;DHT22;7105;43.616;1.434;2023-08-20T10:27:53;33.30;99.90
14061;DHT22;7105;43.616;1.434;2023-08-20T10:30:26;33.50;99.90
14061;DHT22;7105;43.616;1.434;2023-08-20T10:32:57;33.60;99.90
14061;DHT22;7105;43.616;1.434;2023-08-20T10:35:26;34.10;99.90
14061;DHT22;7105;43.616;1.434;2023-08-20T10:38:02;34.30;99.90
14061;DHT22;7105;43.616;1.434;2023-08-20T10:43:33;34.40;99.90
14061;DHT22;7105;43.616;1.434;2023-08-20T10:46:18;34.00;99.90
14061;DHT22;7105;43.616;1.434;2023-08-20T10:48:52;34.00;99.90
14061;DHT22;7105;43.616;1.434;2023-08-20T10:51:18;34.20;99.90
14061;DHT22;7105;43.616;1.434;2023-08-20T10:56:47;33.30;99.90
14061;DHT22;7105;43.616;1.434;2023-08-20T10:59:29;33.00;99.90
14061;DHT22;7105;43.616;1.434;2023-08-20T11:02:00;33.10;99.90
14061;DHT22;7105;43.616;1.434;2023-08-20T11:04:30;33.40;99.90
14061;DHT22;7105;43.616;1.434;2023-08-20T11:06:58;33.40;99.90
14061;DHT22;7105;43.616;1.434;2023-08-20T11:09:29;33.50;99.90
14061;DHT22;7105;43.616;1.434;2023-08-20T11:11:55;33.50;99.90
14061;DHT22;7105;43.616;1.434;2023-08-20T11:14:22;33.20;99.90
14061;DHT22;7105;43.616;1.434;2023-08-20T11:16:48;33.20;99.90
14061;DHT22;7105;43.616;1.434;2023-08-20T11:19:15;34.00;99.90
14061;DHT22;7105;43.616;1.434;2023-08-20T11:21:44;34.30;99.90
14061;DHT22;7105;43.616;1.434;2023-08-20T11:24:11;33.90;99.90
14061;DHT22;7105;43.616;1.434;2023-08-20T11:26:39;33.80;99.90
14061;DHT22;7105;43.616;1.434;2023-08-20T11:29:09;33.80;99.90
14061;DHT22;7105;43.616;1.434;2023-08-20T11:31:38;33.70;99.90
14061;DHT22;7105;43.616;1.434;2023-08-20T11:34:05;33.60;99.90
14061;DHT22;7105;43.616;1.434;2023-08-20T11:36:31;33.90;99.90
14061;DHT22;7105;43.616;1.434;2023-08-20T11:38:57;33.80;99.90
14061;DHT22;7105;43.616;1.434;2023-08-20T11:41:24;34.10;99.90
14061;DHT22;7105;43.616;1.434;2023-08-20T11:43:53;34.20;99.90
14061;DHT22;7105;43.616;1.434;2023-08-20T11:46:22;34.40;99.90
14061;DHT22;7105;43.616;1.434;2023-08-20T11:51:47;34.00;99.90
14061;DHT22;7105;43.616;1.434;2023-08-20T11:54:16;34.20;99.90
14061;DHT22;7105;43.616;1.434;2023-08-20T11:56:47;34.00;99.90
14061;DHT22;7105;43.616;1.434;2023-08-20T11:59:17;34.50;99.90
14061;DHT22;7105;43.616;1.434;2023-08-20T12:01:43;34.70;99.90
14061;DHT22;7105;43.616;1.434;2023-08-20T12:04:14;34.80;99.90
14061;DHT22;7105;43.616;1.434;2023-08-20T12:06:40;34.60;99.90
14061;DHT22;7105;43.616;1.434;2023-08-20T12:09:23;34.80;99.90
14061;DHT22;7105;43.616;1.434;2023-08-20T12:11:53;34.50;99.90
14061;DHT22;7105;43.616;1.434;2023-08-20T12:14:21;34.10;99.90
14061;DHT22;7105;43.616;1.434;2023-08-20T12:16:47;34.00;99.90
14061;DHT22;7105;43.616;1.434;2023-08-20T12:19:13;34.10;99.90
14061;DHT22;7105;43.616;1.434;2023-08-20T12:21:42;34.10;99.90
14061;DHT22;7105;43.616;1.434;2023-08-20T12:24:09;34.10;99.90
14061;DHT22;7105;43.616;1.434;2023-08-20T12:26:36;34.30;99.90
14061;DHT22;7105;43.616;1.434;2023-08-20T12:29:02;34.30;99.90
14061;DHT22;7105;43.616;1.434;2023-08-20T12:31:28;34.70;99.90
14061;DHT22;7105;43.616;1.434;2023-08-20T12:33:55;34.90;99.90
14061;DHT22;7105;43.616;1.434;2023-08-20T12:36:20;34.80;99.90
14061;DHT22;7105;43.616;1.434;2023-08-20T12:38:46;35.10;99.90
14061;DHT22;7105;43.616;1.434;2023-08-20T12:41:12;35.00;99.90
14061;DHT22;7105;43.616;1.434;2023-08-20T12:43:38;34.70;99.90
14061;DHT22;7105;43.616;1.434;2023-08-20T12:46:03;34.80;99.90
14061;DHT22;7105;43.616;1.434;2023-08-20T12:48:29;35.00;99.90
14061;DHT22;7105;43.616;1.434;2023-08-20T12:50:55;35.00;99.90
14061;DHT22;7105;43.616;1.434;2023-08-20T12:53:21;35.00;99.90
14061;DHT22;7105;43.616;1.434;2023-08-20T12:55:47;35.20;99.90
14061;DHT22;7105;43.616;1.434;2023-08-20T12:58:13;35.20;99.90
14061;DHT22;7105;43.616;1.434;2023-08-20T13:00:38;35.40;99.90
14061;DHT22;7105;43.616;1.434;2023-08-20T13:03:05;35.40;99.90
14061;DHT22;7105;43.616;1.434;2023-08-20T13:05:31;35.60;99.90
14061;DHT22;7105;43.616;1.434;2023-08-20T13:07:57;35.60;99.90
14061;DHT22;7105;43.616;1.434;2023-08-20T13:10:23;35.40;99.90
14061;DHT22;7105;43.616;1.434;2023-08-20T13:12:52;35.40;99.90
14061;DHT22;7105;43.616;1.434;2023-08-20T13:15:20;35.30;99.90
14061;DHT22;7105;43.616;1.434;2023-08-20T13:17:48;35.30;99.90
14061;DHT22;7105;43.616;1.434;2023-08-20T13:20:14;35.30;99.90
14061;DHT22;7105;43.616;1.434;2023-08-20T13:22:41;35.40;99.90
14061;DHT22;7105;43.616;1.434;2023-08-20T13:25:07;35.30;99.90
14061;DHT22;7105;43.616;1.434;2023-08-20T13:27:33;35.10;99.90
14061;DHT22;7105;43.616;1.434;2023-08-20T13:29:59;35.20;99.90
14061;DHT22;7105;43.616;1.434;2023-08-20T13:32:24;35.50;99.90
14061;DHT22;7105;43.616;1.434;2023-08-20T13:34:50;35.60;99.90
14061;DHT22;7105;43.616;1.434;2023-08-20T13:37:16;35.50;99.90
14061;DHT22;7105;43.616;1.434;2023-08-20T13:39:43;35.60;99.90
14061;DHT22;7105;43.616;1.434;2023-08-20T13:42:08;35.70;99.90
14061;DHT22;7105;43.616;1.434;2023-08-20T13:44:34;35.90;99.90
14061;DHT22;7105;43.616;1.434;2023-08-20T13:47:00;35.70;99.90
14061;DHT22;7105;43.616;1.434;2023-08-20T13:49:25;35.80;99.90
14061;DHT22;7105;43.616;1.434;2023-08-20T13:51:51;36.10;99.90
14061;DHT22;7105;43.616;1.434;2023-08-20T13:54:17;36.10;99.90
14061;DHT22;7105;43.616;1.434;2023-08-20T13:56:43;36.10;99.90
14061;DHT22;7105;43.616;1.434;2023-08-20T13:59:10;35.80;99.90
14061;DHT22;7105;43.616;1.434;2023-08-20T14:01:35;35.80;99.90
14061;DHT22;7105;43.616;1.434;2023-08-20T14:04:01;35.70;99.90
14061;DHT22;7105;43.616;1.434;2023-08-20T14:06:28;35.80;99.90
14061;DHT22;7105;43.616;1.434;2023-08-20T14:08:54;35.80;99.90
14061;DHT22;7105;43.616;1.434;2023-08-20T14:11:20;35.90;99.90
14061;DHT22;7105;43.616;1.434;2023-08-20T14:13:46;35.80;99.90
14061;DHT22;7105;43.616;1.434;2023-08-20T14:16:12;35.80;99.90
14061;DHT22;7105;43.616;1.434;2023-08-20T14:18:38;35.90;99.90
14061;DHT22;7105;43.616;1.434;2023-08-20T14:21:03;35.90;99.90
14061;DHT22;7105;43.616;1.434;2023-08-20T14:23:29;36.20;99.90
14061;DHT22;7105;43.616;1.434;2023-08-20T14:25:55;35.90;99.90
14061;DHT22;7105;43.616;1.434;2023-08-20T14:28:21;36.00;99.90
14061;DHT22;7105;43.616;1.434;2023-08-20T14:30:48;36.50;99.90
14061;DHT22;7105;43.616;1.434;2023-08-20T14:33:15;36.40;99.90
14061;DHT22;7105;43.616;1.434;2023-08-20T14:35:41;36.50;99.90
14061;DHT22;7105;43.616;1.434;2023-08-20T14:38:06;36.20;99.90
14061;DHT22;7105;43.616;1.434;2023-08-20T14:40:36;36.20;99.90
14061;DHT22;7105;43.616;1.434;2023-08-20T14:43:03;36.50;99.90
14061;DHT22;7105;43.616;1.434;2023-08-20T14:45:29;36.60;99.90
14061;DHT22;7105;43.616;1.434;2023-08-20T14:47:55;36.40;99.90
14061;DHT22;7105;43.616;1.434;2023-08-20T14:50:20;36.30;99.90
14061;DHT22;7105;43.616;1.434;2023-08-20T14:52:46;36.40;99.90
14061;DHT22;7105;43.616;1.434;2023-08-20T14:55:17;36.50;99.90
14061;DHT22;7105;43.616;1.434;2023-08-20T14:57:43;36.30;99.90
14061;DHT22;7105;43.616;1.434;2023-08-20T15:00:13;36.40;99.90
14061;DHT22;7105;43.616;1.434;2023-08-20T15:02:46;36.40;99.90
14061;DHT22;7105;43.616;1.434;2023-08-20T15:05:12;36.40;99.90
14061;DHT22;7105;43.616;1.434;2023-08-20T15:07:38;36.40;99.90
14061;DHT22;7105;43.616;1.434;2023-08-20T15:10:04;36.40;99.90
14061;DHT22;7105;43.616;1.434;2023-08-20T15:12:33;36.50;99.90
14061;DHT22;7105;43.616;1.434;2023-08-20T15:15:03;36.50;99.90
14061;DHT22;7105;43.616;1.434;2023-08-20T15:17:30;36.40;99.90
14061;DHT22;7105;43.616;1.434;2023-08-20T15:19:56;36.50;99.90
14061;DHT22;7105;43.616;1.434;2023-08-20T15:22:22;36.50;99.90
14061;DHT22;7105;43.616;1.434;2023-08-20T15:24:48;36.60;99.90
14061;DHT22;7105;43.616;1.434;2023-08-20T15:27:14;36.40;99.90
14061;DHT22;7105;43.616;1.434;2023-08-20T15:29:39;36.20;99.90
14061;DHT22;7105;43.616;1.434;2023-08-20T15:32:05;36.30;99.90
14061;DHT22;7105;43.616;1.434;2023-08-20T15:34:31;36.50;99.90
14061;DHT22;7105;43.616;1.434;2023-08-20T15:36:56;36.70;99.90
14061;DHT22;7105;43.616;1.434;2023-08-20T15:39:22;36.50;99.90
14061;DHT22;7105;43.616;1.434;2023-08-20T15:41:49;36.60;99.90
14061;DHT22;7105;43.616;1.434;2023-08-20T15:44:14;36.40;99.90
14061;DHT22;7105;43.616;1.434;2023-08-20T15:46:40;36.30;99.90
14061;DHT22;7105;43.616;1.434;2023-08-20T15:49:06;36.40;99.90
14061;DHT22;7105;43.616;1.434;2023-08-20T15:51:32;36.50;99.90
14061;DHT22;7105;43.616;1.434;2023-08-20T15:53:58;36.50;99.90